Time;durP1;ratioP1;P1;durP2;ratioP2;P2;SDS_P1;SDS_P2;PMS_P1;PMS_P2;Temp;Humidity;BMP_temperature;BMP_pressure;BME280_temperature;BME280_humidity;BME280_pressure;Samples;Min_cycle;Max_cycle;Signal;HPM_P1;HPM_P2
2022/05/19 00:04:39;;;;;;;0.20;0.20;;;10.20;73.60;;;8.47;61.53;101321.56;10252030;28;96619;-84
2022/05/19 00:09:42;;;;;;;0.00;0.00;;;10.00;72.70;;;8.37;60.97;101325.09;10237802;28;96526;-84
2022/05/19 00:14:45;;;;;;;0.10;0.10;;;9.90;72.40;;;8.30;60.95;101325.56;10237513;28;97305;-84
2022/05/19 00:19:48;;;;;;;0.00;0.00;;;9.80;73.10;;;8.28;60.06;101324.03;10275748;28;96914;-83
2022/05/19 00:24:51;;;;;;;0.07;0.07;;;9.80;71.80;;;8.28;59.40;101331.97;10239784;28;96644;-84
2022/05/19 00:29:54;;;;;;;1.13;0.20;;;9.80;71.30;;;8.35;59.89;101324.34;10235013;28;96484;-84
2022/05/19 00:34:57;;;;;;;0.20;0.20;;;9.80;71.50;;;8.38;60.67;101324.13;10248797;28;97835;-83
2022/05/19 00:40:00;;;;;;;0.10;0.00;;;9.90;72.90;;;8.35;60.95;101330.50;10250817;28;96700;-83
2022/05/19 00:45:06;;;;;;;0.27;0.20;;;9.90;73.50;;;8.30;61.42;101333.50;10254706;28;97275;-85
2022/05/19 00:50:30;;;;;;;0.00;0.00;;;9.80;73.90;;;8.21;62.48;101328.94;10247836;28;97134;-83
2022/05/19 00:55:40;;;;;;;0.00;0.00;;;9.70;75.10;;;8.12;63.33;101335.00;10250306;28;96879;-84
2022/05/19 01:00:45;;;;;;;0.00;0.00;;;9.60;75.80;;;8.00;63.89;101333.34;10267625;28;96585;-84
2022/05/19 01:06:00;;;;;;;0.00;0.00;;;9.50;77.60;;;7.89;64.65;101336.84;10235020;28;96905;-84
2022/05/19 01:11:05;;;;;;;0.00;0.00;;;9.50;78.90;;;7.81;65.17;101336.63;10267113;28;96710;-84
2022/05/19 01:16:09;;;;;;;0.00;0.00;;;9.40;78.20;;;7.77;65.40;101332.53;10252153;28;98010;-84
2022/05/19 01:21:16;;;;;;;0.00;0.00;;;9.30;78.50;;;7.69;65.00;101337.59;10250855;28;96614;-84
2022/05/19 01:26:28;;;;;;;0.07;0.00;;;9.30;78.90;;;7.62;65.33;101337.25;10269666;28;96611;-84
2022/05/19 01:31:33;;;;;;;0.00;0.00;;;9.20;78.70;;;7.51;65.17;101353.13;10256610;28;96563;-83
2022/05/19 01:36:37;;;;;;;0.00;0.00;;;9.10;78.90;;;7.44;65.36;101344.81;10234830;28;96605;-84
2022/05/19 01:42:20;;;;;;;0.00;0.00;;;9.10;79.50;;;7.38;65.52;101344.47;10233849;28;96898;-84
2022/05/19 01:47:58;;;;;;;0.43;0.10;;;9.00;80.30;;;7.29;65.46;101335.44;10268197;28;96543;-84
2022/05/19 01:53:21;;;;;;;0.10;0.10;;;8.90;79.50;;;7.25;65.06;101336.63;10244833;28;96640;-83
2022/05/19 01:58:26;;;;;;;0.00;0.00;;;8.80;78.80;;;7.20;65.35;101342.28;10229893;28;96880;-84
2022/05/19 02:03:49;;;;;;;0.00;0.00;;;8.80;80.20;;;7.22;65.76;101340.34;10265824;28;96852;-84
2022/05/19 02:09:02;;;;;;;0.00;0.00;;;8.80;80.90;;;7.18;65.24;101346.00;10233136;28;96774;-83
2022/05/19 02:14:16;;;;;;;0.00;0.00;;;8.70;79.80;;;7.17;65.41;101345.16;10264923;28;97240;-84
2022/05/19 02:19:26;;;;;;;0.00;0.00;;;8.70;80.20;;;7.20;65.44;101349.38;10264004;28;96694;-84
2022/05/19 02:24:37;;;;;;;0.00;0.00;;;8.70;80.90;;;7.18;65.88;101352.13;10263646;28;96617;-84
2022/05/19 02:29:40;;;;;;;0.00;0.00;;;8.70;81.40;;;7.19;66.28;101359.09;10266578;28;96973;-83
2022/05/19 02:34:43;;;;;;;0.00;0.00;;;8.70;81.80;;;7.15;66.83;101364.75;10265100;28;96657;-84
2022/05/19 02:39:46;;;;;;;0.10;0.10;;;8.70;83.60;;;7.06;67.12;101371.56;10258449;28;96862;-84
2022/05/19 02:44:49;;;;;;;0.00;0.00;;;8.60;84.80;;;6.93;67.73;101370.81;10257348;28;96618;-84
2022/05/19 02:49:53;;;;;;;0.03;0.00;;;8.50;85.70;;;6.83;68.37;101375.94;10233418;28;96721;-84
2022/05/19 02:54:56;;;;;;;0.00;0.00;;;8.40;87.00;;;6.73;68.86;101377.59;10247958;28;96568;-84
2022/05/19 02:59:59;;;;;;;0.13;0.13;;;8.30;88.70;;;6.64;69.43;101386.19;10234919;28;98028;-83
2022/05/19 03:05:03;;;;;;;0.10;0.10;;;8.20;90.20;;;6.55;69.60;101378.97;10249367;28;96620;-84
2022/05/19 03:10:06;;;;;;;0.07;0.07;;;8.10;90.90;;;6.44;70.16;101377.09;10248785;28;96539;-84
2022/05/19 03:15:10;;;;;;;1.37;0.30;;;8.00;91.60;;;6.42;70.35;101384.31;10250342;28;96595;-83
2022/05/19 03:20:14;;;;;;;0.67;0.50;;;8.00;91.70;;;6.44;70.43;101382.38;10254321;28;96505;-84
2022/05/19 03:25:17;;;;;;;0.37;0.37;;;8.00;92.40;;;6.39;70.39;101387.16;10239356;28;96812;-84
2022/05/19 03:30:22;;;;;;;0.00;0.00;;;7.90;92.70;;;6.39;71.18;101389.78;10241974;28;96708;-84
2022/05/19 03:35:25;;;;;;;0.23;0.10;;;7.90;94.00;;;6.44;71.30;101399.06;10264502;28;96639;-84
2022/05/19 03:40:34;;;;;;;0.00;0.00;;;7.90;93.80;;;6.57;71.99;101404.28;10262642;28;97675;-84
2022/05/19 03:45:37;;;;;;;0.00;0.00;;;8.10;94.80;;;6.68;72.02;101406.16;10251813;28;96705;-84
2022/05/19 03:50:44;;;;;;;0.07;0.03;;;8.20;94.90;;;6.75;72.02;101399.44;10264235;28;96580;-84
2022/05/19 03:55:47;;;;;;;0.00;0.00;;;8.30;95.40;;;6.90;72.26;101408.03;10255727;28;96533;-84
2022/05/19 04:00:50;;;;;;;0.77;0.20;;;8.40;95.40;;;7.08;72.46;101414.59;10269461;28;96598;-84
2022/05/19 04:05:53;;;;;;;0.00;0.00;;;8.50;96.20;;;7.29;72.33;101414.75;10246367;28;96608;-84
2022/05/19 04:10:57;;;;;;;0.30;0.30;;;8.70;95.40;;;7.49;71.44;101418.50;10217237;28;96486;-84
2022/05/19 04:16:00;;;;;;;0.00;0.00;;;8.90;95.20;;;7.59;70.24;101423.94;10263263;28;97723;-84
2022/05/19 04:21:09;;;;;;;0.27;0.10;;;9.00;95.00;;;7.71;69.93;101415.88;10248627;28;96636;-84
2022/05/19 04:26:12;;;;;;;0.10;0.00;;;9.10;95.20;;;7.86;69.17;101413.88;10245544;28;96669;-84
2022/05/19 04:31:15;;;;;;;0.30;0.10;;;9.20;94.50;;;8.05;69.42;101414.09;10261129;28;97903;-84
2022/05/19 04:36:18;;;;;;;0.13;0.13;;;9.40;94.70;;;8.23;68.37;101414.41;10296232;28;96401;-84
2022/05/19 04:41:21;;;;;;;0.00;0.00;;;9.60;93.90;;;8.41;68.16;101419.25;10253417;28;96757;-84
2022/05/19 04:46:24;;;;;;;0.23;0.17;;;9.80;93.70;;;8.59;67.40;101417.75;10257894;28;97033;-84
2022/05/19 04:51:28;;;;;;;0.00;0.00;;;9.90;93.50;;;8.79;66.92;101414.28;10251357;28;96533;-84
2022/05/19 04:56:31;;;;;;;0.00;0.00;;;10.10;93.10;;;9.02;66.43;101419.50;10250582;28;96591;-84
2022/05/19 05:01:34;;;;;;;0.00;0.00;;;10.30;92.70;;;9.23;65.20;101417.69;10269875;28;96606;-85
2022/05/19 05:06:37;;;;;;;0.20;0.10;;;10.50;91.50;;;9.49;64.45;101415.47;10260655;28;96548;-85
2022/05/19 05:11:41;;;;;;;0.30;0.20;;;10.80;91.20;;;9.69;63.19;101419.06;10279862;28;97301;-85
2022/05/19 05:16:48;;;;;;;0.20;0.00;;;11.00;90.50;;;9.93;63.50;101432.88;10293766;28;96749;-86
2022/05/19 05:21:57;;;;;;;0.97;0.60;;;11.30;90.70;;;10.17;63.04;101432.53;10253213;28;96724;-84
2022/05/19 05:27:03;;;;;;;0.10;0.00;;;11.50;90.40;;;10.44;62.02;101441.75;10253279;28;97437;-83
2022/05/19 05:32:06;;;;;;;0.00;0.00;;;11.80;89.10;;;10.71;60.88;101443.72;10289210;28;96433;-84
2022/05/19 05:37:09;;;;;;;0.00;0.00;;;12.00;87.50;;;10.94;60.59;101441.66;10328138;28;96502;-84
2022/05/19 05:42:12;;;;;;;0.10;0.00;;;12.30;87.40;;;11.20;60.37;101439.25;10253045;28;96709;-84
2022/05/19 05:47:15;;;;;;;0.50;0.20;;;12.50;89.10;;;11.44;58.33;101449.44;10240624;28;96548;-84
2022/05/19 05:52:18;;;;;;;0.30;0.10;;;12.70;86.00;;;11.66;58.30;101441.13;10249276;28;96515;-84
2022/05/19 05:57:21;;;;;;;0.13;0.10;;;13.00;87.40;;;11.95;57.46;101429.56;10231783;28;96758;-84
2022/05/19 06:02:24;;;;;;;2.53;0.33;;;13.20;86.70;;;12.21;57.09;101425.22;10238666;28;96710;-84
2022/05/19 06:07:29;;;;;;;0.20;0.10;;;13.50;86.30;;;12.44;55.18;101419.50;10247841;28;97118;-84
2022/05/19 06:12:32;;;;;;;0.30;0.30;;;13.70;80.80;;;12.72;55.82;101420.28;10247509;28;96705;-85
2022/05/19 06:17:42;;;;;;;0.10;0.10;;;14.00;85.60;;;12.99;53.82;101425.53;10218760;28;97184;-84
2022/05/19 06:22:46;;;;;;;0.57;0.20;;;14.20;84.10;;;13.23;52.37;101427.59;10249749;28;96849;-84
2022/05/19 06:27:49;;;;;;;0.20;0.20;;;14.50;81.00;;;13.45;50.39;101420.06;10233799;28;96531;-84
2022/05/19 06:32:53;;;;;;;0.17;0.10;;;14.70;78.80;;;13.72;51.37;101433.25;10251932;28;96568;-84
2022/05/19 06:37:57;;;;;;;0.55;0.55;;;15.00;79.20;;;14.02;49.30;101429.22;10277197;28;96838;-84
2022/05/19 06:43:00;;;;;;;0.20;0.10;;;15.30;70.00;;;14.25;49.55;101436.69;10250905;28;96680;-84
2022/05/19 06:48:03;;;;;;;0.60;0.52;;;15.50;74.40;;;14.48;48.94;101432.44;10250207;28;96696;-84
2022/05/19 06:53:07;;;;;;;0.25;0.25;;;15.70;73.70;;;14.72;48.85;101431.66;10262354;28;96724;-84
2022/05/19 06:58:10;;;;;;;0.20;0.17;;;16.00;74.00;;;14.99;48.21;101430.50;10252585;28;97099;-87
2022/05/19 07:03:13;;;;;;;0.57;0.25;;;16.20;72.30;;;15.23;47.02;101430.53;10230363;28;96689;-84
2022/05/19 07:08:16;;;;;;;0.30;0.10;;;16.50;70.10;;;15.50;47.06;101431.97;10261036;28;96657;-85
2022/05/19 07:13:20;;;;;;;0.15;0.15;;;16.80;68.70;;;15.78;46.42;101424.41;10265849;28;96550;-85
2022/05/19 07:18:23;;;;;;;0.63;0.40;;;17.00;67.80;;;16.08;46.09;101421.97;10240879;28;96438;-85
2022/05/19 07:23:28;;;;;;;0.00;0.00;;;17.30;67.20;;;16.40;45.98;101409.41;10240636;28;96856;-84
2022/05/19 07:28:31;;;;;;;0.25;0.25;;;17.60;65.60;;;16.58;44.54;101409.97;10241203;28;96681;-84
2022/05/19 07:33:36;;;;;;;0.85;0.15;;;17.80;63.90;;;16.75;44.48;101405.34;10237025;28;96926;-85
2022/05/19 07:38:39;;;;;;;0.20;0.20;;;18.00;64.30;;;17.01;44.55;101391.53;10254368;28;97441;-85
2022/05/19 07:43:42;;;;;;;1.40;0.43;;;18.20;64.10;;;17.22;42.77;101407.81;10238337;28;99089;-84
2022/05/19 07:48:49;;;;;;;0.45;0.30;;;18.50;59.70;;;17.29;42.75;101395.31;10268497;28;98128;-84
2022/05/19 07:53:54;;;;;;;0.95;0.60;;;18.50;59.80;;;17.50;42.08;101388.38;10270943;28;96602;-85
2022/05/19 07:58:58;;;;;;;1.88;1.45;;;18.70;60.70;;;17.74;41.25;101381.94;10253497;28;97108;-84
2022/05/19 08:04:01;;;;;;;1.95;1.02;;;18.90;58.70;;;17.97;40.77;101389.91;10256552;28;96412;-84
2022/05/19 08:10:20;;;;;;;0.30;0.28;;;19.10;57.80;;;18.25;39.32;101390.88;10270801;28;96952;-86
2022/05/19 08:20:06;;;;;;;0.40;0.20;;;19.70;57.20;;;19.24;36.52;101382.94;10267498;28;97652;-85
2022/05/19 08:25:09;;;;;;;0.30;0.30;;;20.00;54.10;;;19.39;35.18;101380.97;10256803;28;96800;-85
2022/05/19 08:30:13;;;;;;;0.10;0.10;;;20.30;53.90;;;19.53;31.91;101371.94;10268029;28;98004;-85
2022/05/19 08:35:17;;;;;;;0.32;0.10;;;20.50;50.10;;;19.62;32.29;101364.56;10268596;28;98012;-84
2022/05/19 08:40:20;;;;;;;0.25;0.10;;;20.70;48.30;;;19.80;30.98;101361.34;10255385;28;96522;-84
2022/05/19 08:45:38;;;;;;;0.40;0.28;;;20.90;45.60;;;19.90;29.29;101359.09;10255248;28;96662;-85
2022/05/19 08:51:06;;;;;;;0.00;0.00;;;21.00;43.90;;;20.01;28.25;101360.38;10268461;28;96569;-84
2022/05/19 08:56:47;;;;;;;0.10;0.10;;;21.10;40.30;;;20.09;26.66;101353.97;10236327;28;97614;-84
2022/05/19 09:02:06;;;;;;;0.32;0.13;;;21.20;40.30;;;20.21;26.18;101353.19;10200559;28;96651;-84
2022/05/19 09:07:59;;;;;;;0.10;0.10;;;21.30;40.10;;;20.50;26.82;101349.31;10223718;28;96826;-85
2022/05/19 09:13:30;;;;;;;0.32;0.10;;;21.60;41.70;;;20.77;25.65;101343.97;10253019;28;96776;-84
2022/05/19 09:18:37;;;;;;;;;;;21.90;39.80;;;21.02;26.79;101342.31;10236960;28;96817;-84
2022/05/19 09:23:40;;;;;;;0.65;0.20;;;22.20;41.20;;;21.20;26.10;101340.84;10237179;28;96511;-84
2022/05/19 09:28:46;;;;;;;0.70;0.40;;;22.40;40.90;;;21.39;27.03;101340.00;10255153;28;96888;-84
2022/05/19 09:33:49;;;;;;;0.63;0.25;;;22.60;41.50;;;21.58;26.46;101330.97;10266971;28;96790;-85
2022/05/19 09:39:02;;;;;;;0.45;0.45;;;22.70;41.30;;;21.75;26.22;101323.22;10236369;28;96579;-85
2022/05/19 09:44:14;;;;;;;0.35;0.20;;;22.90;40.60;;;21.89;26.32;101313.19;10239755;28;97404;-84
2022/05/19 09:49:28;;;;;;;0.38;0.20;;;23.10;40.90;;;21.99;24.10;101315.44;10213297;28;98258;-86
2022/05/19 09:54:34;;;;;;;0.10;0.10;;;23.30;39.30;;;21.95;25.46;101304.22;10252834;28;96661;-84
2022/05/19 09:59:48;;;;;;;0.05;0.05;;;23.20;39.80;;;22.10;25.18;101299.38;10253043;28;96459;-84
2022/05/19 10:04:58;;;;;;;0.50;0.30;;;23.30;38.50;;;22.17;24.27;101300.16;10252049;28;96602;-84
2022/05/19 10:10:03;;;;;;;0.40;0.25;;;23.40;38.80;;;22.34;25.70;101300.47;10248535;28;96676;-85
2022/05/19 10:15:13;;;;;;;1.38;0.20;;;23.50;39.70;;;22.57;24.88;101293.66;10234738;28;96583;-84
2022/05/19 10:20:32;;;;;;;0.73;0.20;;;23.70;39.00;;;22.55;24.68;101291.16;10267774;28;96534;-85
2022/05/19 10:26:41;;;;;;;0.22;0.17;;;23.70;38.30;;;22.56;23.85;101284.69;10242395;28;96841;-85
2022/05/19 10:31:57;;;;;;;0.85;0.30;;;23.80;38.00;;;22.71;25.96;101282.47;10222555;28;96659;-84
2022/05/19 10:37:08;;;;;;;0.15;0.10;;;23.80;39.50;;;22.89;23.12;101265.44;10251875;28;96418;-85
2022/05/19 10:42:39;;;;;;;0.13;0.10;;;24.00;37.60;;;23.17;23.54;101256.81;10233013;28;96685;-84
2022/05/19 10:48:04;;;;;;;0.00;0.00;;;24.20;37.80;;;23.33;23.17;101255.41;10251496;28;96432;-84
2022/05/19 10:53:57;;;;;;;0.13;0.10;;;24.40;37.20;;;23.52;22.05;101242.66;10251414;28;96630;-84
2022/05/19 10:59:27;;;;;;;0.10;0.10;;;24.70;35.10;;;23.82;22.75;101231.03;10239091;28;96477;-84
2022/05/19 11:04:44;;;;;;;0.10;0.05;;;25.00;37.10;;;24.16;22.96;101233.00;10200058;28;96629;-84
2022/05/19 11:10:19;;;;;;;0.00;0.00;;;25.30;36.70;;;24.25;20.57;101220.75;10210480;28;96425;-84
2022/05/19 11:15:38;;;;;;;0.40;0.10;;;25.50;35.30;;;24.21;20.69;101219.53;10248894;28;97513;-85
2022/05/19 11:21:14;;;;;;;0.10;0.00;;;25.50;35.20;;;24.39;22.18;101209.69;10264107;28;96663;-84
2022/05/19 11:26:47;;;;;;;0.10;0.05;;;25.50;35.40;;;24.69;22.48;101199.53;10250333;28;96611;-84
2022/05/19 11:32:18;;;;;;;0.03;0.03;;;25.80;36.10;;;24.91;21.95;101190.78;10230999;28;97455;-84
2022/05/19 11:37:50;;;;;;;0.20;0.00;;;26.10;36.30;;;25.04;22.09;101185.91;10213905;28;96661;-84
2022/05/19 11:43:20;;;;;;;0.22;0.22;;;26.20;36.10;;;25.27;22.03;101174.16;10265895;28;96728;-84
2022/05/19 12:00:26;;;;;;;0.25;0.20;;;27.00;35.40;;;25.99;20.10;101165.44;10218148;28;96468;-84
2022/05/19 12:06:13;;;;;;;0.00;0.00;;;27.20;35.10;;;25.80;20.32;101151.25;10199844;28;96396;-83
2022/05/19 12:12:17;;;;;;;0.68;0.10;;;27.00;34.00;;;25.82;19.69;101151.00;10236811;28;97388;-83
2022/05/19 12:17:32;;;;;;;0.40;0.35;;;27.00;34.20;;;26.04;20.36;101137.47;10238527;28;97915;-83
2022/05/19 12:22:44;;;;;;;0.00;0.00;;;27.10;33.80;;;26.28;19.68;101136.22;10255356;28;96672;-83
2022/05/19 12:28:25;;;;;;;0.10;0.10;;;27.50;34.20;;;26.30;19.95;101123.16;10254634;28;96523;-83
2022/05/19 12:33:35;;;;;;;0.10;0.10;;;27.60;34.30;;;26.41;19.56;101116.84;10251241;28;98252;-82
2022/05/19 12:38:43;;;;;;;0.10;0.10;;;27.80;34.30;;;26.62;20.61;101117.94;10270289;28;96549;-84
2022/05/19 12:43:46;;;;;;;0.40;0.10;;;28.10;34.50;;;26.87;19.64;101112.00;10255633;28;96574;-84
2022/05/19 12:49:09;;;;;;;0.00;0.00;;;28.60;34.80;;;27.06;19.60;101108.97;10252445;28;98347;-84
2022/05/19 12:54:12;;;;;;;0.00;0.00;;;28.90;33.40;;;27.12;19.70;101110.69;10266562;28;97240;-83
2022/05/19 12:59:33;;;;;;;0.32;0.15;;;28.80;32.80;;;26.85;18.43;101110.59;10269591;28;96516;-84
2022/05/19 13:04:51;;;;;;;1.40;0.30;;;28.60;31.90;;;27.23;19.18;101101.53;10253031;28;97430;-84
2022/05/19 13:10:20;;;;;;;0.05;0.00;;;28.50;33.10;;;27.32;18.20;101089.06;10259764;28;96558;-84
2022/05/19 13:15:32;;;;;;;0.10;0.10;;;28.70;31.90;;;27.24;19.30;101085.97;10258518;28;96626;-84
2022/05/19 13:20:39;;;;;;;0.03;0.03;;;28.50;32.10;;;27.42;18.33;101086.44;10221686;28;96502;-85
2022/05/19 13:25:47;;;;;;;0.28;0.17;;;28.70;32.20;;;27.66;18.79;101086.09;10237382;28;98244;-83
2022/05/19 13:30:51;;;;;;;0.00;0.00;;;28.70;31.30;;;27.90;18.00;101072.94;10253469;28;97685;-84
2022/05/19 13:36:10;;;;;;;0.40;0.20;;;29.00;32.90;;;28.21;18.75;101076.72;10252895;28;96454;-83
2022/05/19 13:41:15;;;;;;;0.32;0.22;;;29.30;33.10;;;28.53;18.59;101065.69;10250799;28;96676;-83
2022/05/19 13:46:20;;;;;;;0.20;0.13;;;29.60;33.10;;;28.67;18.74;101063.28;10251480;28;96572;-83
2022/05/19 13:51:37;;;;;;;0.05;0.03;;;29.70;33.10;;;29.03;18.15;101045.94;10268689;28;96534;-83
2022/05/19 13:56:47;;;;;;;0.20;0.20;;;29.90;32.80;;;28.43;17.98;101051.97;10252038;28;96632;-83
2022/05/19 14:01:59;;;;;;;0.28;0.15;;;29.50;31.80;;;27.98;17.27;101045.13;10230048;28;96546;-83
2022/05/19 14:07:03;;;;;;;0.40;0.13;;;29.10;31.50;;;28.07;18.39;101050.91;10198487;28;96465;-83
2022/05/19 14:12:33;;;;;;;0.22;0.20;;;28.90;32.00;;;28.31;17.76;101043.13;10226875;28;96819;-83
2022/05/19 14:18:08;;;;;;;0.00;0.00;;;29.10;32.60;;;28.45;17.59;101036.97;10290754;28;96476;-83
2022/05/19 14:23:20;;;;;;;0.20;0.13;;;29.30;31.70;;;28.05;16.38;101034.78;10241552;28;96573;-83
2022/05/19 14:28:36;;;;;;;0.43;0.35;;;29.20;30.50;;;27.84;16.73;101031.13;10265222;28;96809;-83
2022/05/19 14:34:21;;;;;;;0.38;0.20;;;28.90;31.00;;;27.72;17.91;101022.28;10233155;28;97183;-83
2022/05/19 14:39:41;;;;;;;0.45;0.20;;;28.80;31.60;;;27.83;17.73;101017.69;10225750;28;96863;-83
2022/05/19 14:44:52;;;;;;;0.47;0.20;;;28.80;31.60;;;27.98;18.11;100999.53;10237945;28;98493;-83
2022/05/19 14:50:04;;;;;;;0.75;0.20;;;28.90;32.00;;;27.97;17.59;101016.19;10259071;28;96920;-84
2022/05/19 14:55:22;;;;;;;0.25;0.10;;;28.90;31.90;;;27.96;16.95;101009.06;10233924;28;96708;-83
2022/05/19 15:00:31;;;;;;;0.90;0.40;;;29.00;31.40;;;27.92;18.22;100995.13;10295200;28;96701;-83
2022/05/19 15:05:35;;;;;;;0.00;0.00;;;28.80;31.60;;;27.77;17.57;101005.09;10249701;28;98116;-83
2022/05/19 15:10:38;;;;;;;0.20;0.13;;;28.70;30.00;;;27.60;16.61;101000.59;10255681;28;96547;-84
2022/05/19 15:15:42;;;;;;;0.20;0.13;;;28.60;30.60;;;27.36;17.58;100999.31;10253494;28;96449;-83
2022/05/19 15:20:46;;;;;;;0.30;0.30;;;28.40;31.20;;;27.21;16.95;100994.53;10260929;28;97739;-83
2022/05/19 15:25:49;;;;;;;0.00;0.00;;;28.30;30.80;;;27.14;19.23;100985.75;10265351;28;96698;-82
2022/05/19 15:30:52;;;;;;;0.32;0.10;;;28.10;32.00;;;27.17;18.81;100977.06;10275679;28;96707;-83
2022/05/19 15:35:56;;;;;;;0.17;0.10;;;28.20;32.10;;;27.41;18.91;100967.44;10253721;28;97613;-83
2022/05/19 15:40:59;;;;;;;0.30;0.20;;;28.40;32.50;;;27.60;18.42;100958.84;10239632;28;96647;-83
2022/05/19 15:46:02;;;;;;;0.32;0.20;;;28.60;31.90;;;27.87;17.77;100958.75;10254897;28;96806;-83
2022/05/19 15:51:05;;;;;;;0.20;0.20;;;28.90;31.90;;;27.78;18.01;100955.72;10254071;28;96657;-83
2022/05/19 15:56:08;;;;;;;0.10;0.10;;;28.90;31.30;;;27.61;17.94;100952.28;10261739;28;96825;-83
2022/05/19 16:01:11;;;;;;;0.20;0.20;;;28.90;31.20;;;27.92;18.26;100954.13;10254362;28;96749;-83
2022/05/19 16:06:14;;;;;;;0.00;0.00;;;29.10;31.60;;;27.96;18.09;100944.34;10272046;28;96548;-83
2022/05/19 16:11:17;;;;;;;2.42;0.20;;;29.20;31.60;;;28.30;17.99;100943.09;10271361;28;96562;-83
2022/05/19 16:16:21;;;;;;;0.32;0.20;;;29.30;31.50;;;28.35;17.81;100946.72;10263113;28;97456;-83
2022/05/19 16:21:31;;;;;;;0.17;0.10;;;29.50;31.40;;;28.72;18.60;100935.59;10270127;28;97751;-83
2022/05/19 16:26:34;;;;;;;0.20;0.10;;;29.70;32.10;;;28.93;17.83;100933.75;10239001;28;98312;-83
2022/05/19 16:31:37;;;;;;;0.30;0.20;;;29.90;31.90;;;28.94;18.02;100938.13;10248672;28;96564;-83
2022/05/19 16:36:40;;;;;;;0.82;0.15;;;29.90;31.90;;;28.68;16.86;100933.69;10235441;28;96608;-84
2022/05/19 16:41:43;;;;;;;0.20;0.10;;;29.80;31.30;;;28.49;17.82;100938.84;10244379;28;96904;-84
2022/05/19 16:46:47;;;;;;;0.75;0.30;;;29.50;31.50;;;27.95;17.80;100931.78;10243310;28;99015;-83
2022/05/19 16:51:52;;;;;;;0.00;0.00;;;29.20;31.60;;;27.44;19.53;100916.94;10248925;28;96897;-84
2022/05/19 17:02:18;;;;;;;0.30;0.28;;;28.20;32.90;;;26.05;19.85;100921.25;10265444;28;96741;-84
2022/05/19 17:07:21;;;;;;;0.47;0.20;;;27.50;32.60;;;25.38;20.64;100924.09;10254969;28;97269;-84
2022/05/19 17:12:26;;;;;;;0.38;0.30;;;26.80;33.30;;;24.85;21.42;100923.44;10263117;28;96575;-84
2022/05/19 17:17:29;;;;;;;0.52;0.20;;;26.20;33.60;;;24.41;23.04;100935.91;10255975;28;96930;-84
2022/05/19 17:22:33;;;;;;;0.17;0.10;;;25.70;34.70;;;23.99;23.38;100931.53;10268016;28;96483;-84
2022/05/19 17:27:36;;;;;;;0.30;0.13;;;25.30;35.10;;;23.71;25.22;100934.13;10253385;28;97533;-83
2022/05/19 17:32:39;;;;;;;0.28;0.20;;;25.00;36.80;;;23.47;25.70;100925.13;10253716;28;96675;-83
2022/05/19 17:37:43;;;;;;;0.20;0.20;;;24.70;37.60;;;23.22;26.53;100928.91;10253139;28;96512;-82
2022/05/19 17:42:46;;;;;;;0.55;0.40;;;24.40;38.10;;;22.95;27.06;100938.50;10255417;28;96756;-83
2022/05/19 17:47:49;;;;;;;0.10;0.10;;;24.10;39.30;;;22.51;28.60;100932.41;10229443;28;97075;-84
2022/05/19 17:52:55;;;;;;;1.55;0.35;;;23.70;41.10;;;22.14;29.21;100937.88;10223346;28;97401;-84
2022/05/19 17:57:58;;;;;;;0.35;0.15;;;23.40;41.40;;;21.81;30.17;100948.19;10237519;28;96890;-84
2022/05/19 18:03:01;;;;;;;0.03;0.00;;;23.10;41.30;;;21.39;31.73;100942.53;10254664;28;96666;-84
2022/05/19 18:08:06;;;;;;;0.30;0.25;;;22.70;41.20;;;20.98;31.48;100953.84;10285157;28;96963;-85
2022/05/19 18:13:12;;;;;;;0.35;0.22;;;22.40;41.70;;;20.57;32.09;100955.09;10241280;28;96934;-84
2022/05/19 18:18:22;;;;;;;2.00;0.20;;;22.00;42.10;;;20.16;32.78;100950.06;10247788;28;97454;-83
2022/05/19 18:23:28;;;;;;;0.10;0.10;;;21.60;42.70;;;19.75;32.95;100954.72;10267934;28;98748;-84
2022/05/19 18:28:35;;;;;;;0.10;0.10;;;21.20;43.00;;;19.42;33.32;100953.88;10245291;28;96657;-84
2022/05/19 18:33:38;;;;;;;0.88;0.22;;;20.80;43.40;;;19.12;33.44;100956.97;10258763;28;96687;-84
2022/05/19 18:38:44;;;;;;;0.08;0.08;;;20.50;43.40;;;18.84;33.97;100959.84;10250646;28;96696;-84
2022/05/19 18:49:09;;;;;;;0.50;0.25;;;20.00;44.30;;;18.44;34.81;100967.75;10248311;28;96762;-84
2022/05/19 18:54:12;;;;;;;0.20;0.20;;;19.70;44.70;;;18.27;35.01;100969.09;10251321;28;96620;-84
2022/05/19 18:59:15;;;;;;;0.15;0.10;;;19.60;45.20;;;18.12;35.06;100963.03;10261774;28;96678;-84
2022/05/19 19:04:19;;;;;;;0.10;0.10;;;19.40;44.90;;;17.97;35.02;100970.38;10245469;28;98054;-84
2022/05/19 19:09:22;;;;;;;0.00;0.00;;;19.30;45.20;;;17.81;35.30;100971.50;10279287;28;96563;-84
2022/05/19 19:14:29;;;;;;;0.52;0.20;;;19.10;45.80;;;17.69;35.54;100971.19;10248807;28;98454;-84
2022/05/19 19:19:33;;;;;;;0.10;0.10;;;18.90;45.60;;;17.58;35.80;100977.13;10252987;28;96752;-84
2022/05/19 19:24:36;;;;;;;0.38;0.20;;;18.80;45.60;;;17.53;36.29;100974.19;10277542;28;96660;-84
2022/05/19 19:29:43;;;;;;;0.10;0.10;;;18.70;47.00;;;17.45;37.11;100972.44;10266640;28;96562;-84
2022/05/19 19:34:46;;;;;;;0.32;0.20;;;18.70;48.00;;;17.34;37.76;100971.13;10233103;28;97613;-84
2022/05/19 19:39:49;;;;;;;0.35;0.35;;;18.60;48.40;;;17.16;38.39;100976.13;10209411;28;96500;-84
2022/05/19 19:44:52;;;;;;;0.45;0.17;;;18.40;49.90;;;16.91;38.96;100985.56;10214856;28;96592;-84
2022/05/19 19:55:43;;;;;;;0.35;0.20;;;17.90;50.30;;;16.55;39.66;100995.28;10217803;28;96735;-84
2022/05/19 20:00:48;;;;;;;0.10;0.10;;;17.80;50.60;;;16.43;40.16;100994.06;10222855;28;97685;-84
2022/05/19 20:05:51;;;;;;;0.47;0.38;;;17.70;50.80;;;16.30;40.69;100986.66;10243465;28;97446;-84
2022/05/19 20:10:56;;;;;;;0.15;0.15;;;17.50;51.90;;;16.17;41.69;100999.91;10257136;28;96715;-84
2022/05/19 20:16:00;;;;;;;0.52;0.25;;;17.40;53.20;;;15.92;43.18;100993.16;10267415;28;96800;-84
2022/05/19 20:21:03;;;;;;;1.75;0.73;;;17.10;55.10;;;15.69;43.87;100990.53;10223632;28;98472;-84
2022/05/19 20:26:10;;;;;;;0.10;0.10;;;16.90;55.70;;;15.47;44.76;100989.50;10230245;28;96689;-84
2022/05/19 20:31:13;;;;;;;0.30;0.20;;;16.70;55.60;;;15.26;45.48;100996.38;10267552;28;98410;-84
2022/05/19 20:36:17;;;;;;;0.45;0.38;;;16.50;56.60;;;15.01;46.62;100992.22;10274556;28;96697;-84
2022/05/19 20:41:20;;;;;;;0.50;0.30;;;16.30;58.60;;;14.81;47.25;100997.16;10243206;28;96872;-84
2022/05/19 20:46:23;;;;;;;0.95;0.55;;;16.00;58.90;;;14.63;48.11;100994.78;10267657;28;96510;-84
2022/05/19 20:51:29;;;;;;;0.10;0.10;;;15.90;59.80;;;14.45;48.72;100997.66;10251370;28;96704;-84
2022/05/19 20:56:33;;;;;;;0.52;0.22;;;15.70;60.50;;;14.26;49.37;100999.91;10255023;28;96461;-84
2022/05/19 21:01:36;;;;;;;0.13;0.10;;;15.50;60.20;;;14.09;50.23;100999.09;10249013;28;97091;-83
2022/05/19 21:06:41;;;;;;;0.77;0.40;;;15.30;62.10;;;13.90;50.45;100989.63;10236833;28;96757;-84
2022/05/19 21:11:43;;;;;;;0.60;0.30;;;15.20;60.50;;;13.76;51.60;100985.00;10238034;28;96530;-84
2022/05/19 21:16:46;;;;;;;0.00;0.00;;;15.00;60.70;;;13.59;52.08;100993.03;10260937;28;98326;-84
2022/05/19 21:21:50;;;;;;;0.10;0.10;;;14.90;62.10;;;13.44;53.08;100992.03;10265434;28;96857;-83
2022/05/19 21:26:53;;;;;;;0.27;0.20;;;14.70;61.40;;;13.29;53.38;100983.84;10253539;28;96489;-84
2022/05/19 21:31:56;;;;;;;0.10;0.10;;;14.60;64.90;;;13.21;53.58;100997.19;10266896;28;97550;-84
2022/05/19 21:37:00;;;;;;;0.40;0.20;;;14.50;64.90;;;13.11;53.82;100988.47;10242089;28;96884;-84
2022/05/19 21:42:06;;;;;;;0.40;0.40;;;14.40;65.70;;;13.01;54.47;100995.78;10234690;28;96721;-84
2022/05/19 21:47:09;;;;;;;0.13;0.13;;;14.30;65.10;;;12.88;55.05;101001.59;10245092;28;96705;-84
2022/05/19 21:57:49;;;;;;;0.30;0.23;;;14.10;66.20;;;12.69;55.10;100984.06;10238965;28;97029;-84
2022/05/19 22:03:11;;;;;;;0.33;0.33;;;14.00;64.80;;;12.67;54.90;100979.91;10241420;28;96836;-84